Nissho Maru No.18 — JL6369 — position and weather

sailwx.info

Track history (hours):
 
Tides and Currents Weather Stations Pressure Air Temp Water Temp Dewpoint Dewpoint Depression Visibility Wind Speed Wind Dir Waves Ship Positions

Nissho Maru No.18

Last reported at 2016-Sep-11 20:33 UTC. Time now 2016-Sep-29 06:49 UTC.
Position N 34°36' E 134°55'.
Warning: this ship's position is 17 days out of date.

Length 65 m; draft 4 m.

Type: Tanker. MMSI: 431500465.

Date/timePositionNaut miles runAvg speedWind from/ knotsBaromVisibWave heightAir tempDewpointWater temp
2016-Sep-11 20:33N 34°36' E 134°55'8 8.5
2016-Sep-11 19:33N 34°35' E 135°05'10 9.3
2016-Sep-11 18:29N 34°25' E 135°02'9 9.1
2016-Sep-11 17:28N 34°16' E 134°59'8 8.2
2016-Sep-11 16:33N 34°09' E 135°00'210 7.4
2016-Sep-10 12:09N 34°50' E 139°10'23 8.6
2016-Sep-10 09:29N 35°03' E 139°33'9 9.3
2016-Sep-10 08:33N 35°08' E 139°42'9 9.1
2016-Sep-10 07:33N 35°16' E 139°45'9 8.5
2016-Sep-10 06:34N 35°25' E 139°44'9 9.4
2016-Sep-10 05:33N 35°30' E 139°53'7 6.6
2016-Sep-10 04:33N 35°29' E 140°01'0 0.0
2016-Sep-10 03:33N 35°29' E 140°01'0 0.0
2016-Sep-10 02:33N 35°29' E 140°01'0 0.0
2016-Sep-10 01:33N 35°29' E 140°01'0 0.0
2016-Sep-10 00:33N 35°29' E 140°01'0 0.0
2016-Sep-09 23:34N 35°29' E 140°01'6 5.5
2016-Sep-09 22:33N 35°28' E 139°54'0 0.0
2016-Sep-09 21:33N 35°28' E 139°54'0 0.0
2016-Sep-09 20:24N 35°28' E 139°54'0 0.0
2016-Sep-09 19:33N 35°28' E 139°54'0 0.0
2016-Sep-09 18:27N 35°28' E 139°54'0 0.0
2016-Sep-09 17:30N 35°28' E 139°54'3 3.3
2016-Sep-09 16:33N 35°27' E 139°50'9 8.8
2016-Sep-09 15:33N 35°20' E 139°45'8 7.9
2016-Sep-09 14:33N 35°12' E 139°47'236 6.7
2016-Sep-08 03:31N 34°20' E 135°07'5 2.0
2016-Sep-08 01:12N 34°23' E 135°12'0 0.0
2016-Sep-08 00:33N 34°23' E 135°12'0 0.0
2016-Sep-07 18:12N 34°23' E 135°12'0 0.1
2016-Sep-07 17:33N 34°23' E 135°12'6 6.0
2016-Sep-07 16:33N 34°28' E 135°08'9 8.7
2016-Sep-07 15:32N 34°36' E 135°03'7 0.2
2016-Sep-05 21:33N 34°36' E 134°54'7 6.5
2016-Sep-05 20:33N 34°37' E 135°02'5 5.0
2016-Sep-05 19:33N 34°32' E 135°04'9 8.6
2016-Sep-05 18:33N 34°24' E 135°02'8 8.0
2016-Sep-05 17:31N 34°16' E 134°59'9 9.3
2016-Sep-05 16:32N 34°06' E 135°01'229 7.6
2016-Sep-04 10:25N 35°02' E 139°31'10 8.3
2016-Sep-04 09:15N 35°07' E 139°42'6 8.6
2016-Sep-04 08:33N 35°12' E 139°46'8 8.4
2016-Sep-04 07:33N 35°20' E 139°42'8 8.0
2016-Sep-04 06:33N 35°27' E 139°47'11 5.7
2016-Sep-04 04:33N 35°29' E 140°01'0 0.0
2016-Sep-04 03:33N 35°29' E 140°01'0 0.0
2016-Sep-04 02:33N 35°29' E 140°01'0 0.0
2016-Sep-04 01:33N 35°29' E 140°01'0 0.0
2016-Sep-04 00:33N 35°29' E 140°01'0 0.0
2016-Sep-03 23:33N 35°29' E 140°01'6 5.9
2016-Sep-03 22:33N 35°29' E 139°54'8 8.0
2016-Sep-03 21:33N 35°24' E 139°46'8 7.6
2016-Sep-03 20:33N 35°16' E 139°47'9 8.6
2016-Sep-03 19:33N 35°08' E 139°46'242 6.7
2016-Sep-02 07:22N 34°12' E 134°59'1110.4
2016-Sep-02 06:20N 34°22' E 134°60'7 9.3
2016-Sep-02 05:33N 34°29' E 135°02'8 7.2
2016-Sep-02 04:26N 34°36' E 134°56'  
Track history (hours):
 
Tides and Currents Weather Stations Pressure Air Temp Water Temp Dewpoint Dewpoint Depression Visibility Wind Speed Wind Dir Waves Ship Positions

Nissho Maru No.18

Last reported at 2016-Sep-11 20:33 UTC. Time now 2016-Sep-29 06:49 UTC.
Position N 34°36' E 134°55'.
Warning: this ship's position is 17 days out of date.

Length 65 m; draft 4 m.

Type: Tanker. MMSI: 431500465.

Date/timePositionNaut miles runAvg speedWind from/ knotsBaromVisibWave heightAir tempDewpointWater temp
2016-Sep-11 20:33N 34°36' E 134°55'8 8.5
2016-Sep-11 19:33N 34°35' E 135°05'10 9.3
2016-Sep-11 18:29N 34°25' E 135°02'9 9.1
2016-Sep-11 17:28N 34°16' E 134°59'8 8.2
2016-Sep-11 16:33N 34°09' E 135°00'210 7.4
2016-Sep-10 12:09N 34°50' E 139°10'23 8.6
2016-Sep-10 09:29N 35°03' E 139°33'9 9.3
2016-Sep-10 08:33N 35°08' E 139°42'9 9.1
2016-Sep-10 07:33N 35°16' E 139°45'9 8.5
2016-Sep-10 06:34N 35°25' E 139°44'9 9.4
2016-Sep-10 05:33N 35°30' E 139°53'7 6.6
2016-Sep-10 04:33N 35°29' E 140°01'0 0.0
2016-Sep-10 03:33N 35°29' E 140°01'0 0.0
2016-Sep-10 02:33N 35°29' E 140°01'0 0.0
2016-Sep-10 01:33N 35°29' E 140°01'0 0.0
2016-Sep-10 00:33N 35°29' E 140°01'0 0.0
2016-Sep-09 23:34N 35°29' E 140°01'6 5.5
2016-Sep-09 22:33N 35°28' E 139°54'0 0.0
2016-Sep-09 21:33N 35°28' E 139°54'0 0.0
2016-Sep-09 20:24N 35°28' E 139°54'0 0.0
2016-Sep-09 19:33N 35°28' E 139°54'0 0.0
2016-Sep-09 18:27N 35°28' E 139°54'0 0.0
2016-Sep-09 17:30N 35°28' E 139°54'3 3.3
2016-Sep-09 16:33N 35°27' E 139°50'9 8.8
2016-Sep-09 15:33N 35°20' E 139°45'8 7.9
2016-Sep-09 14:33N 35°12' E 139°47'236 6.7
2016-Sep-08 03:31N 34°20' E 135°07'5 2.0
2016-Sep-08 01:12N 34°23' E 135°12'0 0.0
2016-Sep-08 00:33N 34°23' E 135°12'0 0.0
2016-Sep-07 18:12N 34°23' E 135°12'0 0.1
2016-Sep-07 17:33N 34°23' E 135°12'6 6.0
2016-Sep-07 16:33N 34°28' E 135°08'9 8.7
2016-Sep-07 15:32N 34°36' E 135°03'7 0.2
2016-Sep-05 21:33N 34°36' E 134°54'7 6.5
2016-Sep-05 20:33N 34°37' E 135°02'5 5.0
2016-Sep-05 19:33N 34°32' E 135°04'9 8.6
2016-Sep-05 18:33N 34°24' E 135°02'8 8.0
2016-Sep-05 17:31N 34°16' E 134°59'9 9.3
2016-Sep-05 16:32N 34°06' E 135°01'229 7.6
2016-Sep-04 10:25N 35°02' E 139°31'10 8.3
2016-Sep-04 09:15N 35°07' E 139°42'6 8.6
2016-Sep-04 08:33N 35°12' E 139°46'8 8.4
2016-Sep-04 07:33N 35°20' E 139°42'8 8.0
2016-Sep-04 06:33N 35°27' E 139°47'11 5.7
2016-Sep-04 04:33N 35°29' E 140°01'0 0.0
2016-Sep-04 03:33N 35°29' E 140°01'0 0.0
2016-Sep-04 02:33N 35°29' E 140°01'0 0.0
2016-Sep-04 01:33N 35°29' E 140°01'0 0.0
2016-Sep-04 00:33N 35°29' E 140°01'0 0.0
2016-Sep-03 23:33N 35°29' E 140°01'6 5.9
2016-Sep-03 22:33N 35°29' E 139°54'8 8.0
2016-Sep-03 21:33N 35°24' E 139°46'8 7.6
2016-Sep-03 20:33N 35°16' E 139°47'9 8.6
2016-Sep-03 19:33N 35°08' E 139°46'242 6.7
2016-Sep-02 07:22N 34°12' E 134°59'1110.4
2016-Sep-02 06:20N 34°22' E 134°60'7 9.3
2016-Sep-02 05:33N 34°29' E 135°02'8 7.2
2016-Sep-02 04:26N 34°36' E 134°56'  

Dump ship's entire track history